createdAt,value
2018-07-30T00:01:21.603Z,20.60
2018-07-30T00:03:50.293Z,20.50
2018-07-30T00:06:18.949Z,20.50
2018-07-30T00:08:47.635Z,20.40
2018-07-30T00:11:16.307Z,20.30
2018-07-30T00:13:45.023Z,20.30
2018-07-30T00:16:13.678Z,20.20
2018-07-30T00:18:42.345Z,20.20
2018-07-30T00:21:11.056Z,20.10
2018-07-30T00:23:39.742Z,20.10
2018-07-30T00:26:08.425Z,20.10
2018-07-30T00:28:37.078Z,20.10
2018-07-30T00:31:05.871Z,20.10
2018-07-30T00:33:34.559Z,20.00
2018-07-30T00:36:03.263Z,20.00
2018-07-30T00:38:31.888Z,20.00
2018-07-30T00:41:00.565Z,20.00
2018-07-30T00:43:29.212Z,19.90
2018-07-30T00:45:57.835Z,19.90
2018-07-30T00:48:26.496Z,19.80
2018-07-30T00:50:55.120Z,19.80
2018-07-30T00:53:23.801Z,19.70
2018-07-30T00:55:52.469Z,19.70
2018-07-30T00:58:21.145Z,19.60
2018-07-30T01:00:49.912Z,19.60
2018-07-30T01:03:18.598Z,19.60
2018-07-30T01:05:47.257Z,19.50
2018-07-30T01:08:15.897Z,19.50
2018-07-30T01:10:44.584Z,19.40
2018-07-30T01:13:13.247Z,19.40
2018-07-30T01:15:42.021Z,19.40
2018-07-30T01:18:10.959Z,19.40
2018-07-30T01:20:39.965Z,19.30
2018-07-30T01:23:08.966Z,19.30
2018-07-30T01:25:37.617Z,19.30
2018-07-30T01:28:06.357Z,19.30
2018-07-30T01:30:35.006Z,19.20
2018-07-30T01:33:03.686Z,19.20
2018-07-30T01:35:32.416Z,19.10
2018-07-30T01:38:01.061Z,19.10
2018-07-30T01:40:29.723Z,19.00
2018-07-30T01:42:58.403Z,19.00
2018-07-30T01:45:27.084Z,18.90
2018-07-30T01:47:55.744Z,18.90
2018-07-30T01:50:24.428Z,18.80
2018-07-30T01:52:53.142Z,18.80
2018-07-30T01:55:21.878Z,18.80
2018-07-30T01:57:50.487Z,18.80
2018-07-30T02:00:19.169Z,18.70
2018-07-30T02:02:47.842Z,18.70
2018-07-30T02:05:16.557Z,18.70
2018-07-30T02:07:45.204Z,18.70
2018-07-30T02:10:13.913Z,18.60
2018-07-30T02:12:42.645Z,18.60
2018-07-30T02:15:13.411Z,18.60
2018-07-30T02:17:42.194Z,18.50
2018-07-30T02:20:10.864Z,18.50
2018-07-30T02:22:39.539Z,18.50
2018-07-30T02:25:08.801Z,18.50
2018-07-30T02:27:37.571Z,18.40
2018-07-30T02:30:07.617Z,18.40
2018-07-30T02:32:36.358Z,18.30
2018-07-30T02:35:06.224Z,18.30
2018-07-30T02:37:34.941Z,18.20
2018-07-30T02:40:03.757Z,18.20
2018-07-30T02:42:32.464Z,18.20
2018-07-30T02:45:01.318Z,18.20
2018-07-30T02:47:29.978Z,18.20
2018-07-30T02:49:58.748Z,18.20
2018-07-30T02:52:27.437Z,18.10
2018-07-30T02:54:56.221Z,18.10
2018-07-30T02:57:24.836Z,18.20
2018-07-30T02:59:53.476Z,18.10
2018-07-30T03:02:22.162Z,18.10
2018-07-30T03:04:50.882Z,18.10
2018-07-30T03:07:19.553Z,18.10
2018-07-30T03:09:48.244Z,18.00
2018-07-30T03:12:16.928Z,18.00
2018-07-30T03:14:45.607Z,17.90
2018-07-30T03:17:14.319Z,17.80
2018-07-30T03:19:42.974Z,17.80
2018-07-30T03:22:11.616Z,17.80
2018-07-30T03:24:40.405Z,17.80
2018-07-30T03:27:09.098Z,17.70
2018-07-30T03:29:37.832Z,17.70
2018-07-30T03:32:06.558Z,17.60
2018-07-30T03:34:35.303Z,17.60
2018-07-30T03:37:03.995Z,17.60
2018-07-30T03:39:32.770Z,17.50
2018-07-30T03:42:01.513Z,17.50
2018-07-30T03:44:33.222Z,17.50
2018-07-30T03:47:01.919Z,17.50
2018-07-30T03:49:30.577Z,17.40
2018-07-30T03:51:59.258Z,17.50
2018-07-30T03:54:27.941Z,17.40
2018-07-30T03:56:56.633Z,17.40
2018-07-30T03:59:25.305Z,17.40
2018-07-30T04:01:53.980Z,17.40
2018-07-30T04:04:22.613Z,17.50
2018-07-30T04:06:51.265Z,17.50
2018-07-30T04:09:20.110Z,17.50
2018-07-30T04:11:48.815Z,17.50
2018-07-30T04:14:17.449Z,17.60
2018-07-30T04:16:49.212Z,17.50
2018-07-30T04:19:18.021Z,17.50
2018-07-30T04:21:46.854Z,17.60
2018-07-30T04:24:15.584Z,17.60
2018-07-30T04:26:45.722Z,17.70
2018-07-30T04:29:15.181Z,17.70
2018-07-30T04:31:43.927Z,17.80
2018-07-30T04:34:12.601Z,17.70
2018-07-30T04:36:41.289Z,17.80
2018-07-30T04:39:13.908Z,17.90
2018-07-30T04:41:42.949Z,18.00
2018-07-30T04:44:11.662Z,18.00
2018-07-30T04:46:40.373Z,18.20
2018-07-30T04:49:09.097Z,18.20
2018-07-30T04:51:37.893Z,18.20
2018-07-30T04:54:06.985Z,18.30
2018-07-30T04:56:35.748Z,18.30
2018-07-30T04:59:04.717Z,18.30
2018-07-30T05:01:33.383Z,18.40
2018-07-30T05:04:02.078Z,18.40
2018-07-30T05:06:30.733Z,18.40
2018-07-30T05:08:59.485Z,18.50
2018-07-30T05:11:28.162Z,18.50
2018-07-30T05:13:56.821Z,18.60
2018-07-30T05:16:25.506Z,18.60
2018-07-30T05:18:54.161Z,18.70
2018-07-30T05:21:22.837Z,18.70
2018-07-30T05:26:19.884Z,19.00
2018-07-30T05:28:48.532Z,19.10
2018-07-30T05:31:17.258Z,19.30
2018-07-30T05:33:45.949Z,19.40
2018-07-30T05:36:14.634Z,19.50
2018-07-30T05:38:43.318Z,19.70
2018-07-30T05:41:12.030Z,19.80
2018-07-30T05:43:40.713Z,19.90
2018-07-30T05:46:09.405Z,20.00
2018-07-30T05:48:38.120Z,20.00
2018-07-30T05:51:06.933Z,20.10
2018-07-30T05:53:35.623Z,20.20
2018-07-30T05:56:04.567Z,20.30
2018-07-30T05:58:33.216Z,20.40
2018-07-30T06:01:01.897Z,20.50
2018-07-30T06:03:31.305Z,20.70
2018-07-30T06:06:00.453Z,20.80
2018-07-30T06:08:29.676Z,20.90
2018-07-30T06:10:58.844Z,21.00
2018-07-30T06:13:27.974Z,21.10
2018-07-30T06:15:56.677Z,21.30
2018-07-30T06:18:25.453Z,21.40
2018-07-30T06:20:54.207Z,21.60
2018-07-30T06:25:51.258Z,21.90
2018-07-30T06:28:19.979Z,22.00
2018-07-30T06:30:48.660Z,22.10
2018-07-30T06:33:17.314Z,22.20
2018-07-30T06:35:45.981Z,22.40
2018-07-30T06:40:42.989Z,22.70
2018-07-30T06:43:11.680Z,22.90
2018-07-30T06:45:40.382Z,23.10
2018-07-30T06:48:09.069Z,23.30
2018-07-30T06:50:37.780Z,23.40
2018-07-30T06:53:06.526Z,23.60
2018-07-30T06:55:35.194Z,23.70
2018-07-30T06:58:03.917Z,23.90
2018-07-30T07:00:32.628Z,24.00
2018-07-30T07:03:01.291Z,24.20
2018-07-30T07:05:29.958Z,24.40
2018-07-30T07:07:58.684Z,24.50
2018-07-30T07:10:27.338Z,24.60
2018-07-30T07:12:55.999Z,24.70
2018-07-30T07:15:24.760Z,24.90
2018-07-30T07:20:21.754Z,25.20
2018-07-30T07:22:50.442Z,25.30
2018-07-30T07:25:19.091Z,25.50
2018-07-30T07:30:16.090Z,25.70
2018-07-30T07:32:44.729Z,25.90
2018-07-30T07:35:13.407Z,26.00
2018-07-30T07:37:42.093Z,26.20
2018-07-30T07:40:10.835Z,26.30
2018-07-30T07:42:39.511Z,26.40
2018-07-30T07:45:08.740Z,26.60
2018-07-30T07:47:37.419Z,26.70
2018-07-30T07:50:06.418Z,26.80
2018-07-30T07:52:35.090Z,26.90
2018-07-30T07:55:03.821Z,27.10
2018-07-30T07:57:32.476Z,27.20
2018-07-30T08:00:01.158Z,27.30
2018-07-30T08:02:29.899Z,27.50
2018-07-30T08:04:58.546Z,27.70
2018-07-30T08:07:27.208Z,27.80
2018-07-30T08:09:55.997Z,27.90
2018-07-30T08:12:24.559Z,28.00
2018-07-30T08:14:53.234Z,28.20
2018-07-30T08:17:21.923Z,28.30
2018-07-30T08:19:50.573Z,28.30
2018-07-30T08:22:19.327Z,28.50
2018-07-30T08:24:47.974Z,28.50
2018-07-30T08:27:16.734Z,28.60
2018-07-30T08:29:45.445Z,28.70
2018-07-30T08:32:14.099Z,28.90
2018-07-30T08:34:42.749Z,29.00
2018-07-30T08:37:11.431Z,29.20
2018-07-30T08:39:40.070Z,29.30
2018-07-30T08:42:08.729Z,29.40
2018-07-30T08:44:37.433Z,29.50
2018-07-30T08:47:06.202Z,29.50
2018-07-30T08:49:34.863Z,29.70
2018-07-30T08:52:03.572Z,29.80
2018-07-30T08:54:32.275Z,29.80
2018-07-30T08:57:00.917Z,29.80
2018-07-30T08:59:29.587Z,30.00
2018-07-30T09:01:58.229Z,30.10
2018-07-30T09:04:26.873Z,30.10
2018-07-30T09:06:55.539Z,30.20
2018-07-30T09:09:24.209Z,30.20
2018-07-30T09:11:52.870Z,30.20
2018-07-30T09:14:21.542Z,30.40
2018-07-30T09:16:50.210Z,30.40
2018-07-30T09:19:18.845Z,30.60
2018-07-30T09:21:47.578Z,30.60
2018-07-30T09:24:16.241Z,30.60
2018-07-30T09:26:45.422Z,30.60
2018-07-30T09:29:14.138Z,30.70
2018-07-30T09:31:42.794Z,30.80
2018-07-30T09:34:11.485Z,30.80
2018-07-30T09:36:40.165Z,30.70
2018-07-30T09:39:10.626Z,30.70
2018-07-30T09:41:39.400Z,30.90
2018-07-30T09:44:08.105Z,31.10
2018-07-30T09:46:36.765Z,31.20
2018-07-30T09:49:05.478Z,31.30
2018-07-30T09:51:34.151Z,31.50
2018-07-30T09:54:02.800Z,31.60
2018-07-30T09:56:31.497Z,31.80
2018-07-30T09:59:00.181Z,32.00
2018-07-30T10:01:30.930Z,32.10
2018-07-30T10:04:00.537Z,32.10
2018-07-30T10:06:29.249Z,31.90
2018-07-30T10:08:57.914Z,31.70
2018-07-30T10:11:26.639Z,31.60
2018-07-30T10:13:55.297Z,31.30
2018-07-30T10:16:23.944Z,31.10
2018-07-30T10:18:52.628Z,30.90
2018-07-30T10:21:21.311Z,30.90
2018-07-30T10:23:50.010Z,30.80
2018-07-30T10:26:18.620Z,30.80
2018-07-30T10:28:47.333Z,31.00
2018-07-30T10:31:15.966Z,31.30
2018-07-30T10:33:44.595Z,31.60
2018-07-30T10:36:13.286Z,31.60
2018-07-30T10:38:42.009Z,31.60
2018-07-30T10:41:10.661Z,31.90
2018-07-30T10:43:39.374Z,32.30
2018-07-30T10:46:08.057Z,32.70
2018-07-30T10:48:36.702Z,33.00
2018-07-30T10:51:05.432Z,33.50
2018-07-30T10:53:34.112Z,33.70
2018-07-30T10:56:02.737Z,34.00
2018-07-30T10:58:31.442Z,34.30
2018-07-30T11:01:00.141Z,34.50
2018-07-30T11:03:28.758Z,34.40
2018-07-30T11:05:57.494Z,34.60
2018-07-30T11:08:26.182Z,34.90
2018-07-30T11:10:54.841Z,34.80
2018-07-30T11:13:23.529Z,34.90
2018-07-30T11:15:52.173Z,34.80
2018-07-30T11:18:20.798Z,34.40
2018-07-30T11:20:49.456Z,34.60
2018-07-30T11:23:18.091Z,34.70
2018-07-30T11:25:46.737Z,35.00
2018-07-30T11:28:15.445Z,35.20
2018-07-30T11:30:44.079Z,35.10
2018-07-30T11:33:12.701Z,35.20
2018-07-30T11:35:41.368Z,35.30
2018-07-30T11:38:10.022Z,35.30
2018-07-30T11:40:38.658Z,35.30
2018-07-30T11:43:07.341Z,35.20
2018-07-30T11:45:35.981Z,35.40
2018-07-30T11:48:04.650Z,35.70
2018-07-30T11:50:33.300Z,35.70
2018-07-30T11:53:01.985Z,35.70
2018-07-30T11:55:30.610Z,36.00
2018-07-30T11:57:59.312Z,35.50
2018-07-30T12:00:27.950Z,35.40
2018-07-30T12:02:56.577Z,35.40
2018-07-30T12:05:25.256Z,35.60
2018-07-30T12:07:53.899Z,35.40
2018-07-30T12:10:22.576Z,34.90
2018-07-30T12:12:51.204Z,34.60
2018-07-30T12:15:19.854Z,34.60
2018-07-30T12:17:48.503Z,34.90
2018-07-30T12:20:17.209Z,35.20
2018-07-30T12:22:45.838Z,35.70
2018-07-30T12:25:14.542Z,36.00
2018-07-30T12:27:43.189Z,36.20
2018-07-30T12:30:11.865Z,36.20
2018-07-30T12:32:40.489Z,36.30
2018-07-30T12:35:09.130Z,36.40
2018-07-30T12:37:37.804Z,36.50
2018-07-30T12:40:06.470Z,36.80
2018-07-30T12:42:35.156Z,36.60
2018-07-30T12:45:03.895Z,37.10
2018-07-30T12:47:32.536Z,37.70
2018-07-30T12:50:01.182Z,38.00
2018-07-30T12:52:29.838Z,38.20
2018-07-30T12:54:58.520Z,37.90
2018-07-30T12:57:27.213Z,37.70
2018-07-30T12:59:55.872Z,36.90
2018-07-30T13:02:24.533Z,36.30
2018-07-30T13:04:53.184Z,35.50
2018-07-30T13:07:21.824Z,35.10
2018-07-30T13:09:50.497Z,34.80
2018-07-30T13:12:19.138Z,34.50
2018-07-30T13:14:47.823Z,34.30
2018-07-30T13:17:16.463Z,34.00
2018-07-30T13:19:45.129Z,34.00
2018-07-30T13:22:13.889Z,34.00
2018-07-30T13:24:42.662Z,34.20
2018-07-30T13:27:11.321Z,34.30
2018-07-30T13:29:39.981Z,34.30
2018-07-30T13:32:08.623Z,34.40
2018-07-30T13:34:37.301Z,34.40
2018-07-30T13:37:06.031Z,34.20
2018-07-30T13:39:34.713Z,34.10
2018-07-30T13:42:03.373Z,34.20
2018-07-30T13:44:32.069Z,34.20
2018-07-30T13:47:00.708Z,34.40
2018-07-30T13:49:29.369Z,35.30
2018-07-30T13:51:58.093Z,36.30
2018-07-30T13:54:26.806Z,37.30
2018-07-30T13:56:55.430Z,37.40
2018-07-30T13:59:24.072Z,37.40
2018-07-30T14:01:52.760Z,37.50
2018-07-30T14:04:21.437Z,38.00
2018-07-30T14:06:50.126Z,38.50
2018-07-30T14:09:18.804Z,39.60
2018-07-30T14:11:47.431Z,40.10
2018-07-30T14:14:16.064Z,40.10
2018-07-30T14:16:44.693Z,40.50
2018-07-30T14:19:17.031Z,40.40
2018-07-30T14:21:45.822Z,40.70
2018-07-30T14:24:14.521Z,41.10
2018-07-30T14:26:43.190Z,41.40
2018-07-30T14:29:11.817Z,41.70
2018-07-30T14:31:40.510Z,42.00
2018-07-30T14:34:09.145Z,42.50
2018-07-30T14:36:37.905Z,42.30
2018-07-30T14:39:09.101Z,42.50
2018-07-30T14:41:37.810Z,42.70
2018-07-30T14:44:06.777Z,42.90
2018-07-30T14:46:35.587Z,42.90
2018-07-30T14:49:04.290Z,43.00
2018-07-30T14:51:32.999Z,43.30
2018-07-30T14:54:01.614Z,43.00
2018-07-30T14:56:30.262Z,43.10
2018-07-30T14:58:58.915Z,43.30
2018-07-30T15:01:27.618Z,43.70
2018-07-30T15:03:56.296Z,43.60
2018-07-30T15:06:24.950Z,43.20
2018-07-30T15:08:53.585Z,42.20
2018-07-30T15:11:22.317Z,41.00
2018-07-30T15:13:50.976Z,39.50
2018-07-30T15:16:19.613Z,38.60
2018-07-30T15:18:48.274Z,38.40
2018-07-30T15:21:16.910Z,38.90
2018-07-30T15:23:45.586Z,39.70
2018-07-30T15:26:14.245Z,40.20
2018-07-30T15:28:42.895Z,40.40
2018-07-30T15:31:11.523Z,39.70
2018-07-30T15:33:40.209Z,39.30
2018-07-30T15:36:08.872Z,39.00
2018-07-30T15:38:37.617Z,38.40
2018-07-30T15:41:06.383Z,38.70
2018-07-30T15:43:35.045Z,39.50
2018-07-30T15:46:03.673Z,40.50
2018-07-30T15:48:32.384Z,41.10
2018-07-30T15:51:01.046Z,41.90
2018-07-30T15:53:29.709Z,42.40
2018-07-30T15:55:58.409Z,42.70
2018-07-30T15:58:27.045Z,42.70
2018-07-30T16:00:55.692Z,43.10
2018-07-30T16:03:24.329Z,43.30
2018-07-30T16:05:53.060Z,43.40
2018-07-30T16:08:21.677Z,42.70
2018-07-30T16:10:50.508Z,42.20
2018-07-30T16:13:19.183Z,42.20
2018-07-30T16:15:47.839Z,41.90
2018-07-30T16:18:16.506Z,41.20
2018-07-30T16:20:45.149Z,40.30
2018-07-30T16:23:13.820Z,39.30
2018-07-30T16:25:42.524Z,38.40
2018-07-30T16:28:11.174Z,37.80
2018-07-30T16:30:39.865Z,38.00
2018-07-30T16:33:08.455Z,38.80
2018-07-30T16:35:37.106Z,39.50
2018-07-30T16:38:05.797Z,39.90
2018-07-30T16:40:34.492Z,39.20
2018-07-30T16:43:03.149Z,38.40
2018-07-30T16:45:31.801Z,38.00
2018-07-30T16:48:00.735Z,37.80
2018-07-30T16:50:29.356Z,38.00
2018-07-30T16:52:57.998Z,38.70
2018-07-30T16:55:26.725Z,39.10
2018-07-30T16:57:55.377Z,39.50
2018-07-30T17:00:24.107Z,39.10
2018-07-30T17:02:53.324Z,38.40
2018-07-30T17:05:22.006Z,37.60
2018-07-30T17:07:51.122Z,36.90
2018-07-30T17:10:20.278Z,36.30
2018-07-30T17:12:49.388Z,35.70
2018-07-30T17:15:18.522Z,35.20
2018-07-30T17:17:47.258Z,34.70
2018-07-30T17:20:16.485Z,34.40
2018-07-30T17:22:45.666Z,34.00
2018-07-30T17:25:15.828Z,33.80
2018-07-30T17:27:45.854Z,33.70
2018-07-30T17:30:14.511Z,33.80
2018-07-30T17:32:43.705Z,34.10
2018-07-30T17:35:13.798Z,34.40
2018-07-30T17:37:49.937Z,34.40
2018-07-30T17:40:18.594Z,34.30
2018-07-30T17:42:47.811Z,34.10
2018-07-30T17:45:16.896Z,33.90
2018-07-30T17:47:47.013Z,33.70
2018-07-30T17:50:16.127Z,33.40
2018-07-30T17:52:44.744Z,33.10
2018-07-30T17:55:13.420Z,32.90
2018-07-30T17:57:42.050Z,32.80
2018-07-30T18:00:11.316Z,32.70
2018-07-30T18:02:39.950Z,32.50
2018-07-30T18:05:09.013Z,32.40
2018-07-30T18:07:37.625Z,32.20
2018-07-30T18:10:06.598Z,32.10
2018-07-30T18:12:35.305Z,32.00
2018-07-30T18:15:04.058Z,31.90
2018-07-30T18:17:32.683Z,31.70
2018-07-30T18:20:01.305Z,31.60
2018-07-30T18:22:30.018Z,31.50
2018-07-30T18:24:58.719Z,31.40
2018-07-30T18:27:27.379Z,31.30
2018-07-30T18:29:55.989Z,31.10
2018-07-30T18:32:24.665Z,31.00
2018-07-30T18:34:53.330Z,30.90
2018-07-30T18:37:22.120Z,30.60
2018-07-30T18:39:50.772Z,30.50
2018-07-30T18:42:19.479Z,30.30
2018-07-30T18:44:48.141Z,30.10
2018-07-30T18:47:16.764Z,29.80
2018-07-30T18:49:45.446Z,29.60
2018-07-30T18:52:14.949Z,29.40
2018-07-30T18:54:43.587Z,29.20
2018-07-30T18:57:12.210Z,29.10
2018-07-30T18:59:40.845Z,28.90
2018-07-30T19:02:09.615Z,28.70
2018-07-30T19:04:38.312Z,28.60
2018-07-30T19:07:06.913Z,28.40
2018-07-30T19:09:35.601Z,28.30
2018-07-30T19:12:04.273Z,28.30
2018-07-30T19:14:32.900Z,28.20
2018-07-30T19:17:01.546Z,28.10
2018-07-30T19:19:30.178Z,27.90
2018-07-30T19:21:58.866Z,27.80
2018-07-30T19:24:27.560Z,27.70
2018-07-30T19:26:56.178Z,27.50
2018-07-30T19:29:24.792Z,27.40
2018-07-30T19:31:53.426Z,27.30
2018-07-30T19:34:22.043Z,27.10
2018-07-30T19:36:50.864Z,27.10
2018-07-30T19:39:19.477Z,27.00
2018-07-30T19:41:48.129Z,26.90
2018-07-30T19:44:16.900Z,26.70
2018-07-30T19:46:45.501Z,26.60
2018-07-30T19:49:14.139Z,26.50
2018-07-30T19:51:42.833Z,26.40
2018-07-30T19:54:11.452Z,26.30
2018-07-30T19:56:40.078Z,26.30
2018-07-30T19:59:09.165Z,26.10
2018-07-30T20:01:41.569Z,26.10
2018-07-30T20:04:10.183Z,26.00
2018-07-30T20:06:38.857Z,25.90
2018-07-30T20:09:09.617Z,25.80
2018-07-30T20:11:38.289Z,25.70
2018-07-30T20:14:06.924Z,25.60
2018-07-30T20:16:35.796Z,25.50
2018-07-30T20:19:04.550Z,25.40
2018-07-30T20:21:33.290Z,25.40
2018-07-30T20:24:02.015Z,25.20
2018-07-30T20:26:30.869Z,25.20
2018-07-30T20:28:59.609Z,25.00
2018-07-30T20:31:28.261Z,25.00
2018-07-30T20:33:57.986Z,24.90
2018-07-30T20:36:26.698Z,24.70
2018-07-30T20:38:55.345Z,24.70
2018-07-30T20:41:24.448Z,24.60
2018-07-30T20:43:53.617Z,24.60
2018-07-30T20:46:22.493Z,24.50
2018-07-30T20:48:51.248Z,24.50
2018-07-30T20:51:19.983Z,24.40
2018-07-30T20:53:48.629Z,24.40
2018-07-30T20:56:17.249Z,24.40
2018-07-30T20:58:45.882Z,24.40
2018-07-30T21:01:14.618Z,24.30
2018-07-30T21:03:43.268Z,24.20
2018-07-30T21:06:11.949Z,24.10
2018-07-30T21:08:40.618Z,24.10
2018-07-30T21:11:09.305Z,23.90
2018-07-30T21:13:37.944Z,24.00
2018-07-30T21:16:06.625Z,23.90
2018-07-30T21:18:35.339Z,23.80
2018-07-30T21:21:04.097Z,23.80
2018-07-30T21:26:01.048Z,23.50
2018-07-30T21:28:29.708Z,23.40
2018-07-30T21:30:58.385Z,23.40
2018-07-30T21:33:27.354Z,23.30
2018-07-30T21:35:56.073Z,23.20
2018-07-30T21:38:24.742Z,23.10
2018-07-30T21:40:54.394Z,23.00
2018-07-30T21:43:23.102Z,22.90
2018-07-30T21:45:52.408Z,22.80
2018-07-30T21:48:21.109Z,22.80
2018-07-30T21:50:49.781Z,22.70
2018-07-30T21:53:18.429Z,22.70
2018-07-30T21:55:47.129Z,22.60
2018-07-30T21:58:15.766Z,22.60
2018-07-30T22:00:49.646Z,22.60
2018-07-30T22:03:18.302Z,22.50
2018-07-30T22:05:51.162Z,22.50
2018-07-30T22:08:19.908Z,22.40
2018-07-30T22:10:48.678Z,22.30
2018-07-30T22:15:45.637Z,22.20
2018-07-30T22:20:42.637Z,22.10
2018-07-30T22:23:11.394Z,22.10
2018-07-30T22:25:40.079Z,22.10
2018-07-30T22:28:08.883Z,22.00
2018-07-30T22:30:37.627Z,22.00
2018-07-30T22:33:06.341Z,21.90
2018-07-30T22:35:35.042Z,21.80
2018-07-30T22:38:03.732Z,21.80
2018-07-30T22:40:32.391Z,21.80
2018-07-30T22:43:01.001Z,21.80
2018-07-30T22:45:29.673Z,21.70
2018-07-30T22:48:05.199Z,21.70
2018-07-30T22:50:34.141Z,21.70
2018-07-30T22:53:02.801Z,21.60
2018-07-30T22:57:59.720Z,21.50
2018-07-30T23:00:28.382Z,21.40
2018-07-30T23:02:57.036Z,21.40
2018-07-30T23:05:25.797Z,21.40
2018-07-30T23:07:54.429Z,21.40
2018-07-30T23:10:23.092Z,21.30
2018-07-30T23:12:51.805Z,21.30
2018-07-30T23:15:20.462Z,21.20
2018-07-30T23:17:49.081Z,21.20
2018-07-30T23:20:17.772Z,21.20
2018-07-30T23:22:46.404Z,21.10
2018-07-30T23:25:15.041Z,21.10
2018-07-30T23:27:43.730Z,21.10
2018-07-30T23:30:12.421Z,21.00
2018-07-30T23:32:41.077Z,21.00
2018-07-30T23:35:09.773Z,20.90
2018-07-30T23:37:38.497Z,20.90
2018-07-30T23:42:35.638Z,20.90
2018-07-30T23:45:04.330Z,20.80
2018-07-30T23:47:32.976Z,20.80
2018-07-30T23:50:01.615Z,20.80
2018-07-30T23:52:30.254Z,20.70
2018-07-30T23:54:58.973Z,20.70
2018-07-30T23:57:27.721Z,20.70
2018-07-30T23:59:56.390Z,20.60
